sensor_id;sensor_type;location;lat;lon;timestamp;pressure;altitude;pressure_sealevel;temperature;humidity
6899;BME280;3488;42.616;23.350;2022-07-29T00:01:26;63887.78;;;18.25;100.00
6899;BME280;3488;42.616;23.350;2022-07-29T00:03:53;63886.72;;;18.22;100.00
6899;BME280;3488;42.616;23.350;2022-07-29T00:06:21;63874.28;;;18.17;100.00
6899;BME280;3488;42.616;23.350;2022-07-29T00:08:50;63883.63;;;18.21;100.00
6899;BME280;3488;42.616;23.350;2022-07-29T00:11:17;63896.13;;;18.33;100.00
6899;BME280;3488;42.616;23.350;2022-07-29T00:13:44;63897.19;;;18.37;100.00
6899;BME280;3488;42.616;23.350;2022-07-29T00:16:11;63894.56;;;18.34;100.00
6899;BME280;3488;42.616;23.350;2022-07-29T00:18:38;63887.28;;;18.25;100.00
6899;BME280;3488;42.616;23.350;2022-07-29T00:21:05;63887.75;;;18.23;100.00
6899;BME280;3488;42.616;23.350;2022-07-29T00:23:34;63874.75;;;18.13;100.00
6899;BME280;3488;42.616;23.350;2022-07-29T00:26:01;63872.72;;;18.13;100.00
6899;BME280;3488;42.616;23.350;2022-07-29T00:28:28;63878.91;;;18.14;100.00
6899;BME280;3488;42.616;23.350;2022-07-29T00:30:55;63871.66;;;18.12;100.00
6899;BME280;3488;42.616;23.350;2022-07-29T00:33:22;63877.34;;;18.15;100.00
6899;BME280;3488;42.616;23.350;2022-07-29T00:35:50;63872.72;;;18.16;100.00
6899;BME280;3488;42.616;23.350;2022-07-29T00:38:17;63874.75;;;18.13;100.00
6899;BME280;3488;42.616;23.350;2022-07-29T00:40:46;63866.94;;;18.05;100.00
6899;BME280;3488;42.616;23.350;2022-07-29T00:43:13;63871.66;;;18.10;100.00
6899;BME280;3488;42.616;23.350;2022-07-29T00:45:40;63877.34;;;18.13;100.00
6899;BME280;3488;42.616;23.350;2022-07-29T00:48:07;63875.78;;;18.11;100.00
6899;BME280;3488;42.616;23.350;2022-07-29T00:50:35;63863.34;;;18.04;100.00
6899;BME280;3488;42.616;23.350;2022-07-29T00:53:04;63858.72;;;18.05;100.00
6899;BME280;3488;42.616;23.350;2022-07-29T00:55:32;63859.69;;;18.01;100.00
6899;BME280;3488;42.616;23.350;2022-07-29T00:58:00;63860.22;;;18.01;100.00
6899;BME280;3488;42.616;23.350;2022-07-29T01:00:28;63862.78;;;18.01;100.00
6899;BME280;3488;42.616;23.350;2022-07-29T01:02:55;63859.72;;;18.03;100.00
6899;BME280;3488;42.616;23.350;2022-07-29T01:05:24;63867.47;;;18.06;100.00
6899;BME280;3488;42.616;23.350;2022-07-29T01:07:53;63870.59;;;18.09;100.00
6899;BME280;3488;42.616;23.350;2022-07-29T01:10:21;63879.44;;;18.17;100.00
6899;BME280;3488;42.616;23.350;2022-07-29T01:12:51;63872.16;;;18.10;100.00
6899;BME280;3488;42.616;23.350;2022-07-29T01:15:20;63864.88;;;18.03;100.00
6899;BME280;3488;42.616;23.350;2022-07-29T01:17:54;63858.66;;;18.00;100.00
6899;BME280;3488;42.616;23.350;2022-07-29T01:20:29;63869.03;;;18.07;100.00
6899;BME280;3488;42.616;23.350;2022-07-29T01:23:21;63868.50;;;18.07;100.00
6899;BME280;3488;42.616;23.350;2022-07-29T01:26:04;63869.03;;;18.07;100.00
6899;BME280;3488;42.616;23.350;2022-07-29T01:31:32;63877.88;;;18.13;100.00
6899;BME280;3488;42.616;23.350;2022-07-29T01:34:03;63876.88;;;18.17;100.00
6899;BME280;3488;42.616;23.350;2022-07-29T01:36:35;63888.31;;;18.26;100.00
6899;BME280;3488;42.616;23.350;2022-07-29T01:39:07;63885.72;;;18.26;100.00
6899;BME280;3488;42.616;23.350;2022-07-29T01:41:37;63877.94;;;18.21;100.00
6899;BME280;3488;42.616;23.350;2022-07-29T01:44:12;63881.56;;;18.22;100.00
6899;BME280;3488;42.616;23.350;2022-07-29T01:46:45;63882.59;;;18.23;100.00
6899;BME280;3488;42.616;23.350;2022-07-29T01:49:20;63882.59;;;18.20;100.00
6899;BME280;3488;42.616;23.350;2022-07-29T01:51:50;63878.44;;;18.19;100.00
6899;BME280;3488;42.616;23.350;2022-07-29T01:54:21;63886.16;;;18.19;100.00
6899;BME280;3488;42.616;23.350;2022-07-29T01:56:53;63883.63;;;18.21;100.00
6899;BME280;3488;42.616;23.350;2022-07-29T01:59:24;63886.75;;;18.24;100.00
6899;BME280;3488;42.616;23.350;2022-07-29T02:01:54;63877.94;;;18.21;100.00
6899;BME280;3488;42.616;23.350;2022-07-29T02:04:24;63883.63;;;18.21;100.00
6899;BME280;3488;42.616;23.350;2022-07-29T02:06:53;63893.50;;;18.31;100.00
6899;BME280;3488;42.616;23.350;2022-07-29T02:09:22;63877.41;;;18.18;100.00
6899;BME280;3488;42.616;23.350;2022-07-29T02:11:52;63875.31;;;18.16;100.00
6899;BME280;3488;42.616;23.350;2022-07-29T02:14:23;63884.16;;;18.22;100.00
6899;BME280;3488;42.616;23.350;2022-07-29T02:16:52;63887.75;;;18.23;100.00
6899;BME280;3488;42.616;23.350;2022-07-29T02:19:22;63895.09;;;18.32;100.00
6899;BME280;3488;42.616;23.350;2022-07-29T02:21:51;63895.09;;;18.32;100.00
6899;BME280;3488;42.616;23.350;2022-07-29T02:24:21;63891.94;;;18.29;100.00
6899;BME280;3488;42.616;23.350;2022-07-29T02:26:49;63886.78;;;18.27;100.00
6899;BME280;3488;42.616;23.350;2022-07-29T02:29:18;63891.47;;;18.31;100.00
6899;BME280;3488;42.616;23.350;2022-07-29T02:31:48;63898.22;;;18.38;100.00
6899;BME280;3488;42.616;23.350;2022-07-29T02:34:17;63911.75;;;18.46;100.00
6899;BME280;3488;42.616;23.350;2022-07-29T02:36:45;63915.44;;;18.55;100.00
6899;BME280;3488;42.616;23.350;2022-07-29T02:39:13;63922.22;;;18.61;100.00
6899;BME280;3488;42.616;23.350;2022-07-29T02:41:44;63933.13;;;18.69;100.00
6899;BME280;3488;42.616;23.350;2022-07-29T02:44:13;63935.28;;;18.76;100.00
6899;BME280;3488;42.616;23.350;2022-07-29T02:46:48;63934.75;;;18.76;100.00
6899;BME280;3488;42.616;23.350;2022-07-29T02:49:22;63935.22;;;18.71;100.00
6899;BME280;3488;42.616;23.350;2022-07-29T02:51:56;63934.69;;;18.71;100.00
6899;BME280;3488;42.616;23.350;2022-07-29T02:54:29;63941.50;;;18.80;100.00
6899;BME280;3488;42.616;23.350;2022-07-29T02:57:00;63934.19;;;18.70;100.00
6899;BME280;3488;42.616;23.350;2022-07-29T02:59:30;63945.09;;;18.78;100.00
6899;BME280;3488;42.616;23.350;2022-07-29T03:02:02;63942.53;;;18.78;100.00
6899;BME280;3488;42.616;23.350;2022-07-29T03:04:32;63941.50;;;18.80;100.00
6899;BME280;3488;42.616;23.350;2022-07-29T03:07:01;63940.94;;;18.74;100.00
6899;BME280;3488;42.616;23.350;2022-07-29T03:09:29;63930.50;;;18.64;100.00
6899;BME280;3488;42.616;23.350;2022-07-29T03:11:56;63920.16;;;18.62;100.00
6899;BME280;3488;42.616;23.350;2022-07-29T03:14:24;63920.09;;;18.54;100.00
6899;BME280;3488;42.616;23.350;2022-07-29T03:16:51;63903.00;;;18.48;100.00
6899;BME280;3488;42.616;23.350;2022-07-29T03:19:20;63910.75;;;18.50;100.00
6899;BME280;3488;42.616;23.350;2022-07-29T03:21:47;63909.69;;;18.47;100.00
6899;BME280;3488;42.616;23.350;2022-07-29T03:24:27;63905.47;;;18.37;100.00
6899;BME280;3488;42.616;23.350;2022-07-29T03:26:55;63897.72;;;18.37;100.00
6899;BME280;3488;42.616;23.350;2022-07-29T03:29:23;63895.09;;;18.32;100.00
6899;BME280;3488;42.616;23.350;2022-07-29T03:31:51;63897.16;;;18.32;100.00
6899;BME280;3488;42.616;23.350;2022-07-29T03:34:18;63886.78;;;18.29;100.00
6899;BME280;3488;42.616;23.350;2022-07-29T03:36:46;63881.09;;;18.24;100.00
6899;BME280;3488;42.616;23.350;2022-07-29T03:39:15;63881.53;;;18.17;100.00
6899;BME280;3488;42.616;23.350;2022-07-29T03:41:45;63870.09;;;18.08;100.00
6899;BME280;3488;42.616;23.350;2022-07-29T03:44:14;63871.66;;;18.12;100.00
6899;BME280;3488;42.616;23.350;2022-07-29T03:46:43;63878.91;;;18.14;100.00
6899;BME280;3488;42.616;23.350;2022-07-29T03:49:11;63877.34;;;18.15;100.00
6899;BME280;3488;42.616;23.350;2022-07-29T03:51:41;63879.44;;;18.17;100.00
6899;BME280;3488;42.616;23.350;2022-07-29T03:54:10;63884.16;;;18.24;100.00
6899;BME280;3488;42.616;23.350;2022-07-29T03:56:40;63880.50;;;18.21;100.00
6899;BME280;3488;42.616;23.350;2022-07-29T03:59:10;63889.38;;;18.29;100.00
6899;BME280;3488;42.616;23.350;2022-07-29T04:01:38;63895.63;;;18.35;100.00
6899;BME280;3488;42.616;23.350;2022-07-29T04:04:06;63894.09;;;18.36;100.00
6899;BME280;3488;42.616;23.350;2022-07-29T04:06:38;63904.50;;;18.44;100.00
6899;BME280;3488;42.616;23.350;2022-07-29T04:09:05;63914.94;;;18.54;100.00
6899;BME280;3488;42.616;23.350;2022-07-29T04:11:33;63930.53;;;18.67;100.00
6899;BME280;3488;42.616;23.350;2022-07-29T04:14:00;63913.38;;;18.55;100.00
6899;BME280;3488;42.616;23.350;2022-07-29T04:16:27;63915.97;;;18.55;100.00
6899;BME280;3488;42.616;23.350;2022-07-29T04:18:54;63921.19;;;18.60;100.00
6899;BME280;3488;42.616;23.350;2022-07-29T04:21:21;63926.88;;;18.63;100.00
6899;BME280;3488;42.616;23.350;2022-07-29T04:23:48;63938.38;;;18.77;100.00
6899;BME280;3488;42.616;23.350;2022-07-29T04:26:16;63947.75;;;18.86;100.00
6899;BME280;3488;42.616;23.350;2022-07-29T04:28:44;63967.59;;;19.07;100.00
6899;BME280;3488;42.616;23.350;2022-07-29T04:31:12;63996.22;;;19.30;100.00
6899;BME280;3488;42.616;23.350;2022-07-29T04:33:39;64009.28;;;19.45;100.00
6899;BME280;3488;42.616;23.350;2022-07-29T04:36:06;64025.94;;;19.56;100.00
6899;BME280;3488;42.616;23.350;2022-07-29T04:38:33;64026.47;;;19.57;100.00
6899;BME280;3488;42.616;23.350;2022-07-29T04:41:00;64017.09;;;19.50;100.00
6899;BME280;3488;42.616;23.350;2022-07-29T04:43:27;64021.78;;;19.54;100.00
6899;BME280;3488;42.616;23.350;2022-07-29T04:45:55;64029.09;;;19.64;100.00
6899;BME280;3488;42.616;23.350;2022-07-29T04:48:22;64032.28;;;19.72;100.00
6899;BME280;3488;42.616;23.350;2022-07-29T04:50:49;64067.72;;;20.01;100.00
6899;BME280;3488;42.616;23.350;2022-07-29T04:53:18;64092.22;;;20.22;100.00
6899;BME280;3488;42.616;23.350;2022-07-29T04:55:45;64103.22;;;20.35;100.00
6899;BME280;3488;42.616;23.350;2022-07-29T04:58:12;64126.66;;;20.55;100.00
6899;BME280;3488;42.616;23.350;2022-07-29T05:00:39;64132.44;;;20.63;100.00
6899;BME280;3488;42.616;23.350;2022-07-29T05:03:07;64141.31;;;20.75;100.00
6899;BME280;3488;42.616;23.350;2022-07-29T05:05:34;64152.25;;;20.80;100.00
6899;BME280;3488;42.616;23.350;2022-07-29T05:08:01;64172.56;;;20.97;100.00
6899;BME280;3488;42.616;23.350;2022-07-29T05:10:28;64177.31;;;21.04;100.00
6899;BME280;3488;42.616;23.350;2022-07-29T05:12:55;64184.66;;;21.16;100.00
6899;BME280;3488;42.616;23.350;2022-07-29T05:15:21;64174.19;;;21.01;100.00
6899;BME280;3488;42.616;23.350;2022-07-29T05:17:48;64195.09;;;21.24;100.00
6899;BME280;3488;42.616;23.350;2022-07-29T05:20:17;64166.34;;;20.94;100.00
6899;BME280;3488;42.616;23.350;2022-07-29T05:22:45;64148.56;;;20.74;100.00
6899;BME280;3488;42.616;23.350;2022-07-29T05:25:12;64137.66;;;20.68;100.00
6899;BME280;3488;42.616;23.350;2022-07-29T05:27:39;64151.22;;;20.82;100.00
6899;BME280;3488;42.616;23.350;2022-07-29T05:30:06;64145.47;;;20.74;100.00
6899;BME280;3488;42.616;23.350;2022-07-29T05:32:33;64117.81;;;20.49;100.00
6899;BME280;3488;42.616;23.350;2022-07-29T05:35:00;64155.38;;;20.83;100.00
6899;BME280;3488;42.616;23.350;2022-07-29T05:37:29;64161.66;;;20.92;100.00
6899;BME280;3488;42.616;23.350;2022-07-29T05:39:56;64191.91;;;21.16;100.00
6899;BME280;3488;42.616;23.350;2022-07-29T05:42:23;64203.41;;;21.27;100.00
6899;BME280;3488;42.616;23.350;2022-07-29T05:44:50;64199.78;;;21.26;100.00
6899;BME280;3488;42.616;23.350;2022-07-29T05:47:18;64217.00;;;21.42;100.00
6899;BME280;3488;42.616;23.350;2022-07-29T05:49:44;64248.34;;;21.72;100.00
6899;BME280;3488;42.616;23.350;2022-07-29T05:52:11;64256.72;;;21.81;100.00
6899;BME280;3488;42.616;23.350;2022-07-29T05:54:40;64266.63;;;21.88;100.00
6899;BME280;3488;42.616;23.350;2022-07-29T05:57:07;64287.56;;;22.10;99.93
6899;BME280;3488;42.616;23.350;2022-07-29T05:59:35;64293.81;;;22.16;100.00
6899;BME280;3488;42.616;23.350;2022-07-29T06:02:03;64314.78;;;22.41;99.47
6899;BME280;3488;42.616;23.350;2022-07-29T06:04:30;64345.56;;;22.63;97.28
6899;BME280;3488;42.616;23.350;2022-07-29T06:06:57;64363.38;;;22.83;94.64
6899;BME280;3488;42.616;23.350;2022-07-29T06:09:24;64357.13;;;22.82;94.24
6899;BME280;3488;42.616;23.350;2022-07-29T06:11:53;64362.34;;;22.84;93.32
6899;BME280;3488;42.616;23.350;2022-07-29T06:14:20;64375.41;;;22.95;91.18
6899;BME280;3488;42.616;23.350;2022-07-29T06:16:47;64374.84;;;22.92;92.79
6899;BME280;3488;42.616;23.350;2022-07-29T06:19:13;64373.78;;;22.88;93.07
6899;BME280;3488;42.616;23.350;2022-07-29T06:21:41;64365.97;;;22.85;89.79
6899;BME280;3488;42.616;23.350;2022-07-29T06:24:09;64363.38;;;22.83;94.08
6899;BME280;3488;42.616;23.350;2022-07-29T06:26:37;64353.97;;;22.76;94.34
6899;BME280;3488;42.616;23.350;2022-07-29T06:29:06;64387.91;;;23.04;91.82
6899;BME280;3488;42.616;23.350;2022-07-29T06:31:33;64372.25;;;22.92;88.12
6899;BME280;3488;42.616;23.350;2022-07-29T06:34:00;64373.81;;;22.93;93.21
6899;BME280;3488;42.616;23.350;2022-07-29T06:36:27;64405.19;;;23.21;91.68
6899;BME280;3488;42.616;23.350;2022-07-29T06:38:54;64412.53;;;23.28;90.14
6899;BME280;3488;42.616;23.350;2022-07-29T06:41:21;64400.50;;;23.21;90.01
6899;BME280;3488;42.616;23.350;2022-07-29T06:43:48;64418.28;;;23.36;91.91
6899;BME280;3488;42.616;23.350;2022-07-29T06:46:19;64457.53;;;23.71;91.70
6899;BME280;3488;42.616;23.350;2022-07-29T06:48:47;64472.19;;;23.87;89.97
6899;BME280;3488;42.616;23.350;2022-07-29T06:51:14;64484.78;;;24.02;88.57
6899;BME280;3488;42.616;23.350;2022-07-29T06:53:42;64506.75;;;24.23;86.36
6899;BME280;3488;42.616;23.350;2022-07-29T06:56:09;64520.38;;;24.36;85.09
6899;BME280;3488;42.616;23.350;2022-07-29T06:58:38;64527.13;;;24.38;82.83
6899;BME280;3488;42.616;23.350;2022-07-29T07:01:06;64520.38;;;24.36;83.86
6899;BME280;3488;42.616;23.350;2022-07-29T07:03:34;64543.38;;;24.56;82.65
6899;BME280;3488;42.616;23.350;2022-07-29T07:06:01;64543.94;;;24.59;82.31
6899;BME280;3488;42.616;23.350;2022-07-29T07:08:28;64557.00;;;24.69;83.73
6899;BME280;3488;42.616;23.350;2022-07-29T07:10:56;64566.97;;;24.78;81.70
6899;BME280;3488;42.616;23.350;2022-07-29T07:13:23;64576.41;;;24.90;80.18
6899;BME280;3488;42.616;23.350;2022-07-29T07:15:50;64593.69;;;25.06;79.89
6899;BME280;3488;42.616;23.350;2022-07-29T07:18:17;64609.38;;;25.22;78.04
6899;BME280;3488;42.616;23.350;2022-07-29T07:20:46;64616.22;;;25.28;76.81
6899;BME280;3488;42.616;23.350;2022-07-29T07:23:13;64629.81;;;25.36;75.60
6899;BME280;3488;42.616;23.350;2022-07-29T07:25:40;64611.50;;;25.21;74.61
6899;BME280;3488;42.616;23.350;2022-07-29T07:28:07;64619.34;;;25.29;76.87
6899;BME280;3488;42.616;23.350;2022-07-29T07:30:34;64634.56;;;25.46;74.89
6899;BME280;3488;42.616;23.350;2022-07-29T07:33:02;64641.41;;;25.57;73.95
6899;BME280;3488;42.616;23.350;2022-07-29T07:35:30;64658.13;;;25.66;68.54
6899;BME280;3488;42.616;23.350;2022-07-29T07:37:58;64668.06;;;25.73;70.37
6899;BME280;3488;42.616;23.350;2022-07-29T07:40:25;64684.84;;;25.91;71.23
6899;BME280;3488;42.616;23.350;2022-07-29T07:42:52;64680.66;;;25.90;72.26
6899;BME280;3488;42.616;23.350;2022-07-29T07:45:19;64665.97;;;25.73;68.66
6899;BME280;3488;42.616;23.350;2022-07-29T07:47:46;64680.66;;;25.90;70.37
6899;BME280;3488;42.616;23.350;2022-07-29T07:50:13;64679.63;;;25.86;66.87
6899;BME280;3488;42.616;23.350;2022-07-29T07:52:48;64672.28;;;25.82;66.82
6899;BME280;3488;42.616;23.350;2022-07-29T07:55:16;64668.09;;;25.78;69.24
6899;BME280;3488;42.616;23.350;2022-07-29T07:57:44;64693.25;;;26.04;67.14
6899;BME280;3488;42.616;23.350;2022-07-29T08:00:12;64706.88;;;26.07;64.67
6899;BME280;3488;42.616;23.350;2022-07-29T08:02:40;64693.75;;;26.00;61.61
6899;BME280;3488;42.616;23.350;2022-07-29T08:05:09;64699.53;;;26.05;63.98
6899;BME280;3488;42.616;23.350;2022-07-29T08:07:37;64699.53;;;26.03;63.79
6899;BME280;3488;42.616;23.350;2022-07-29T08:10:05;64716.84;;;26.19;62.94
6899;BME280;3488;42.616;23.350;2022-07-29T08:12:33;64718.91;;;26.21;62.87
6899;BME280;3488;42.616;23.350;2022-07-29T08:15:00;64743.56;;;26.43;61.87
6899;BME280;3488;42.616;23.350;2022-07-29T08:17:27;64746.19;;;26.50;65.77
6899;BME280;3488;42.616;23.350;2022-07-29T08:19:54;64762.94;;;26.59;61.25
6899;BME280;3488;42.616;23.350;2022-07-29T08:22:21;64741.47;;;26.46;61.11
6899;BME280;3488;42.616;23.350;2022-07-29T08:24:48;64756.69;;;26.60;61.85
6899;BME280;3488;42.616;23.350;2022-07-29T08:27:19;64751.44;;;26.55;60.27
6899;BME280;3488;42.616;23.350;2022-07-29T08:29:48;64729.94;;;26.35;59.80
6899;BME280;3488;42.616;23.350;2022-07-29T08:32:15;64739.91;;;26.42;59.17
6899;BME280;3488;42.616;23.350;2022-07-29T08:34:42;64755.66;;;26.59;58.00
6899;BME280;3488;42.616;23.350;2022-07-29T08:37:11;64756.69;;;26.60;55.54
6899;BME280;3488;42.616;23.350;2022-07-29T08:39:39;64774.53;;;26.75;55.60
6899;BME280;3488;42.616;23.350;2022-07-29T08:42:06;64797.63;;;27.02;58.30
6899;BME280;3488;42.616;23.350;2022-07-29T08:44:33;64799.72;;;27.04;53.99
6899;BME280;3488;42.616;23.350;2022-07-29T08:47:02;64822.25;;;27.23;54.96
6899;BME280;3488;42.616;23.350;2022-07-29T08:49:30;64850.09;;;27.47;54.32
6899;BME280;3488;42.616;23.350;2022-07-29T08:51:58;64839.06;;;27.42;52.79
6899;BME280;3488;42.616;23.350;2022-07-29T08:54:27;64847.47;;;27.47;54.24
6899;BME280;3488;42.616;23.350;2022-07-29T08:56:55;64868.44;;;27.67;54.90
6899;BME280;3488;42.616;23.350;2022-07-29T08:59:25;64911.50;;;28.06;53.73
6899;BME280;3488;42.616;23.350;2022-07-29T09:01:54;64915.19;;;28.17;49.79
6899;BME280;3488;42.616;23.350;2022-07-29T09:04:24;64935.66;;;28.31;49.50
6899;BME280;3488;42.616;23.350;2022-07-29T09:06:54;64962.97;;;28.58;51.86
6899;BME280;3488;42.616;23.350;2022-07-29T09:09:23;65004.97;;;28.93;48.95
6899;BME280;3488;42.616;23.350;2022-07-29T09:11:50;64947.72;;;28.43;46.73
6899;BME280;3488;42.616;23.350;2022-07-29T09:14:18;64970.34;;;28.70;49.44
6899;BME280;3488;42.616;23.350;2022-07-29T09:16:55;65024.41;;;29.11;50.71
6899;BME280;3488;42.616;23.350;2022-07-29T09:19:26;65054.91;;;29.48;48.75
6899;BME280;3488;42.616;23.350;2022-07-29T09:21:54;65011.28;;;29.06;44.94
6899;BME280;3488;42.616;23.350;2022-07-29T09:24:26;64945.09;;;28.40;47.93
6899;BME280;3488;42.616;23.350;2022-07-29T09:26:53;64897.84;;;27.95;49.50
6899;BME280;3488;42.616;23.350;2022-07-29T09:29:22;64901.00;;;27.98;50.67
6899;BME280;3488;42.616;23.350;2022-07-29T09:31:51;64936.16;;;28.32;51.73
6899;BME280;3488;42.616;23.350;2022-07-29T09:34:22;64946.16;;;28.41;46.63
6899;BME280;3488;42.616;23.350;2022-07-29T09:36:52;64950.84;;;28.41;48.24
6899;BME280;3488;42.616;23.350;2022-07-29T09:39:28;64949.81;;;28.42;48.44
6899;BME280;3488;42.616;23.350;2022-07-29T09:41:56;64949.28;;;28.44;49.95
6899;BME280;3488;42.616;23.350;2022-07-29T09:44:24;64971.34;;;28.63;51.01
6899;BME280;3488;42.616;23.350;2022-07-29T09:46:58;64956.13;;;28.56;49.63
6899;BME280;3488;42.616;23.350;2022-07-29T09:49:31;64967.19;;;28.64;49.33
6899;BME280;3488;42.616;23.350;2022-07-29T09:52:08;64995.00;;;28.88;49.93
6899;BME280;3488;42.616;23.350;2022-07-29T09:54:36;65011.81;;;29.04;47.56
6899;BME280;3488;42.616;23.350;2022-07-29T09:57:04;65041.78;;;29.33;48.65
6899;BME280;3488;42.616;23.350;2022-07-29T09:59:34;65093.81;;;29.80;48.90
6899;BME280;3488;42.616;23.350;2022-07-29T10:02:55;65137.97;;;30.25;46.90
6899;BME280;3488;42.616;23.350;2022-07-29T10:05:37;65160.59;;;30.46;46.29
6899;BME280;3488;42.616;23.350;2022-07-29T10:08:11;65209.50;;;30.93;45.99
6899;BME280;3488;42.616;23.350;2022-07-29T10:10:39;65244.22;;;31.29;44.67
6899;BME280;3488;42.616;23.350;2022-07-29T10:13:08;65286.88;;;31.64;43.60
6899;BME280;3488;42.616;23.350;2022-07-29T10:15:37;65302.09;;;31.84;43.04
6899;BME280;3488;42.616;23.350;2022-07-29T10:18:06;65327.94;;;32.06;43.30
6899;BME280;3488;42.616;23.350;2022-07-29T10:20:34;65327.91;;;32.09;41.95
6899;BME280;3488;42.616;23.350;2022-07-29T10:23:02;65339.53;;;32.10;43.80
6899;BME280;3488;42.616;23.350;2022-07-29T10:25:30;65339.53;;;32.15;41.42
6899;BME280;3488;42.616;23.350;2022-07-29T10:27:57;65337.94;;;32.16;42.59
6899;BME280;3488;42.616;23.350;2022-07-29T10:30:25;65300.03;;;31.82;41.69
6899;BME280;3488;42.616;23.350;2022-07-29T10:33:18;65289.50;;;31.67;41.88
6899;BME280;3488;42.616;23.350;2022-07-29T10:36:07;65227.38;;;31.10;44.24
6899;BME280;3488;42.616;23.350;2022-07-29T10:38:43;65218.47;;;31.04;43.55
6899;BME280;3488;42.616;23.350;2022-07-29T10:41:22;65207.41;;;30.91;43.32
6899;BME280;3488;42.616;23.350;2022-07-29T10:44:00;65185.81;;;30.73;43.08
6899;BME280;3488;42.616;23.350;2022-07-29T10:46:28;65162.16;;;30.48;43.96
6899;BME280;3488;42.616;23.350;2022-07-29T10:49:11;65146.38;;;30.33;43.07
6899;BME280;3488;42.616;23.350;2022-07-29T10:51:57;65143.25;;;30.30;44.58
6899;BME280;3488;42.616;23.350;2022-07-29T10:54:51;65147.97;;;30.32;42.85
6899;BME280;3488;42.616;23.350;2022-07-29T10:57:26;65139.56;;;30.26;43.21
6899;BME280;3488;42.616;23.350;2022-07-29T11:02:58;65110.63;;;29.99;45.12
6899;BME280;3488;42.616;23.350;2022-07-29T11:05:26;65124.81;;;30.12;45.27
6899;BME280;3488;42.616;23.350;2022-07-29T11:08:20;65127.47;;;30.15;46.77
6899;BME280;3488;42.616;23.350;2022-07-29T11:10:49;65141.66;;;30.28;44.69
6899;BME280;3488;42.616;23.350;2022-07-29T11:13:48;65146.91;;;30.31;42.44
6899;BME280;3488;42.616;23.350;2022-07-29T11:16:17;65160.59;;;30.46;42.92
6899;BME280;3488;42.616;23.350;2022-07-29T11:19:21;65159.03;;;30.42;43.12
6899;BME280;3488;42.616;23.350;2022-07-29T11:21:48;65176.38;;;30.59;43.90
6899;BME280;3488;42.616;23.350;2022-07-29T11:24:18;65192.69;;;30.80;42.33
6899;BME280;3488;42.616;23.350;2022-07-29T11:27:06;65238.44;;;31.21;41.39
6899;BME280;3488;42.616;23.350;2022-07-29T11:29:35;65243.19;;;31.18;40.59
6899;BME280;3488;42.616;23.350;2022-07-29T11:32:09;65248.44;;;31.28;38.77
6899;BME280;3488;42.616;23.350;2022-07-29T11:34:36;65253.72;;;31.35;41.08
6899;BME280;3488;42.616;23.350;2022-07-29T11:37:22;65272.13;;;31.48;40.09
6899;BME280;3488;42.616;23.350;2022-07-29T11:40:11;65286.31;;;31.69;38.93
6899;BME280;3488;42.616;23.350;2022-07-29T11:42:43;65294.75;;;31.69;38.90
6899;BME280;3488;42.616;23.350;2022-07-29T11:45:13;65223.19;;;31.06;38.90
6899;BME280;3488;42.616;23.350;2022-07-29T11:47:47;65240.53;;;31.20;38.66
6899;BME280;3488;42.616;23.350;2022-07-29T11:50:16;65244.75;;;31.27;39.25
6899;BME280;3488;42.616;23.350;2022-07-29T11:52:45;65262.13;;;31.46;39.31
6899;BME280;3488;42.616;23.350;2022-07-29T11:55:16;65243.16;;;31.28;38.65
6899;BME280;3488;42.616;23.350;2022-07-29T11:57:47;65245.81;;;31.28;40.04
6899;BME280;3488;42.616;23.350;2022-07-29T12:00:27;65285.31;;;31.58;40.85
6899;BME280;3488;42.616;23.350;2022-07-29T12:02:55;65295.28;;;31.78;38.56
6899;BME280;3488;42.616;23.350;2022-07-29T12:05:32;65323.19;;;32.02;38.25
6899;BME280;3488;42.616;23.350;2022-07-29T12:08:07;65341.09;;;32.16;37.82
6899;BME280;3488;42.616;23.350;2022-07-29T12:10:35;65325.81;;;32.07;35.54
6899;BME280;3488;42.616;23.350;2022-07-29T12:13:02;65382.16;;;32.60;35.67
6899;BME280;3488;42.616;23.350;2022-07-29T12:15:31;65417.47;;;32.89;36.56
6899;BME280;3488;42.616;23.350;2022-07-29T12:17:58;65450.13;;;33.25;35.45
6899;BME280;3488;42.616;23.350;2022-07-29T12:20:27;65468.56;;;33.38;35.03
6899;BME280;3488;42.616;23.350;2022-07-29T12:22:55;65488.06;;;33.59;34.16
6899;BME280;3488;42.616;23.350;2022-07-29T12:25:24;65455.41;;;33.25;34.31
6899;BME280;3488;42.616;23.350;2022-07-29T12:27:59;65493.34;;;33.64;33.92
6899;BME280;3488;42.616;23.350;2022-07-29T12:30:42;65479.13;;;33.53;30.86
6899;BME280;3488;42.616;23.350;2022-07-29T12:33:16;65541.88;;;34.08;32.94
6899;BME280;3488;42.616;23.350;2022-07-29T12:35:45;65472.81;;;33.44;31.26
6899;BME280;3488;42.616;23.350;2022-07-29T12:38:13;65445.41;;;33.13;33.61
6899;BME280;3488;42.616;23.350;2022-07-29T12:40:40;65462.25;;;33.32;34.92
6899;BME280;3488;42.616;23.350;2022-07-29T12:43:10;65460.16;;;33.30;34.64
6899;BME280;3488;42.616;23.350;2022-07-29T12:45:37;65462.25;;;33.29;33.65
6899;BME280;3488;42.616;23.350;2022-07-29T12:48:06;65463.84;;;33.36;33.90
6899;BME280;3488;42.616;23.350;2022-07-29T12:50:35;65435.41;;;33.06;34.18
6899;BME280;3488;42.616;23.350;2022-07-29T12:53:10;65383.75;;;32.59;33.94
6899;BME280;3488;42.616;23.350;2022-07-29T12:55:42;65377.97;;;32.46;33.73
6899;BME280;3488;42.616;23.350;2022-07-29T12:58:09;65359.00;;;32.31;35.77
6899;BME280;3488;42.616;23.350;2022-07-29T13:00:36;65329.53;;;32.03;36.96
6899;BME280;3488;42.616;23.350;2022-07-29T13:03:03;65355.84;;;32.30;38.32
6899;BME280;3488;42.616;23.350;2022-07-29T13:05:42;65350.03;;;32.25;37.25
6899;BME280;3488;42.616;23.350;2022-07-29T13:08:11;65348.97;;;32.24;38.00
6899;BME280;3488;42.616;23.350;2022-07-29T13:10:38;65369.00;;;32.43;37.97
6899;BME280;3488;42.616;23.350;2022-07-29T13:13:06;65320.56;;;31.97;38.57
6899;BME280;3488;42.616;23.350;2022-07-29T13:15:35;65320.56;;;31.94;36.43
6899;BME280;3488;42.616;23.350;2022-07-29T13:18:02;65337.41;;;32.10;37.42
6899;BME280;3488;42.616;23.350;2022-07-29T13:20:29;65308.47;;;31.80;38.83
6899;BME280;3488;42.616;23.350;2022-07-29T13:22:58;65299.50;;;31.82;40.10
6899;BME280;3488;42.616;23.350;2022-07-29T13:25:27;65294.75;;;31.75;40.23